Tilden, Nebraska
Current Conditions -  °F | °C
As of 1:56 PM on Saturday 25 Oct 2014 (Local Time) from KOFK Reporting Station
Clear Clear  
Wind Chill: 70°   Ceiling: Unl
Heat Index: 70°   Visibility: 10mi
Dew Point: 37°   Wind: 6mph
Humidity: 30%   Direction: 50°NE
Pressure: 30.11"   Gusts: NA
Location:  42.04°N, 97.83°W
Report Text: KOFK 251856Z AUTO 05005KT 10SM CLR 21/03 A3011 RMK AO2 SLP197 T02110028
Loading
Personal Weather Stations






























Interactive Weather Map
Tropical Storm Tracking
New forecast layout! Learn more

10-Day Weather Forecast

Advertisements
Track Severe Weather on mobile